Thomaston, New York
Current Conditions -  °F | °C
As of 7:51 PM on Tuesday 21 Oct 2014 (Local Time) from KLGA Reporting Station
Broken Clouds Broken Clouds  
Wind Chill: 62°   Ceiling: 25000
Heat Index: 62°   Visibility: 10mi
Dew Point: 53°   Wind: 7mph
Humidity: 72%   Direction: 50°NE
Pressure: 29.87"   Gusts: NA
Location:  40.786°N, 73.7291°W
Report Text: KLGA 212351Z 05006KT 10SM FEW020 SCT028 SCT110 BKN250 17/12 A2987 RMK AO2 SLP114 T01670117 10194 20167 53016
Loading
Personal Weather Stations






























Interactive Weather Map New forecast layout! Learn more

10-Day Weather Forecast

Advertisements
Track Severe Weather on mobile